createdAt,value
2018-06-17T00:01:31.430Z,10.97
2018-06-17T00:04:00.012Z,8.37
2018-06-17T00:06:28.587Z,12.70
2018-06-17T00:08:57.139Z,10.73
2018-06-17T00:11:28.388Z,10.23
2018-06-17T00:13:56.896Z,12.63
2018-06-17T00:16:26.998Z,10.47
2018-06-17T00:18:56.566Z,10.37
2018-06-17T00:21:25.059Z,11.23
2018-06-17T00:23:53.585Z,12.70
2018-06-17T00:26:21.964Z,11.60
2018-06-17T00:28:51.342Z,12.37
2018-06-17T00:31:19.740Z,10.87
2018-06-17T00:33:48.005Z,11.37
2018-06-17T00:36:16.550Z,10.70
2018-06-17T00:38:45.001Z,13.37
2018-06-17T00:41:13.487Z,13.90
2018-06-17T00:43:42.088Z,12.87
2018-06-17T00:46:10.504Z,13.40
2018-06-17T00:48:39.010Z,9.97
2018-06-17T00:51:07.496Z,13.43
2018-06-17T00:53:35.863Z,14.77
2018-06-17T00:56:04.320Z,15.27
2018-06-17T00:58:32.800Z,14.43
2018-06-17T01:01:01.034Z,15.00
2018-06-17T01:03:29.305Z,12.77
2018-06-17T01:05:57.734Z,14.70
2018-06-17T01:08:26.070Z,13.47
2018-06-17T01:10:54.490Z,14.50
2018-06-17T01:13:23.875Z,11.40
2018-06-17T01:15:52.206Z,15.17
2018-06-17T01:18:20.414Z,12.93
2018-06-17T01:20:48.780Z,15.13
2018-06-17T01:23:17.083Z,13.07
2018-06-17T01:25:45.431Z,14.67
2018-06-17T01:28:13.861Z,15.57
2018-06-17T01:30:42.166Z,16.10
2018-06-17T01:33:10.538Z,17.30
2018-06-17T01:35:38.979Z,16.70
2018-06-17T01:38:07.222Z,14.70
2018-06-17T01:40:35.569Z,15.37
2018-06-17T01:43:04.088Z,17.13
2018-06-17T01:45:32.443Z,15.17
2018-06-17T01:48:00.857Z,16.93
2018-06-17T01:50:29.578Z,17.80
2018-06-17T01:52:57.807Z,15.67
2018-06-17T01:55:26.183Z,17.47
2018-06-17T01:57:54.580Z,14.80
2018-06-17T02:00:22.950Z,19.40
2018-06-17T02:02:51.281Z,18.37
2018-06-17T02:05:24.990Z,13.87
2018-06-17T02:07:58.635Z,18.10
2018-06-17T02:10:32.430Z,13.43
2018-06-17T02:13:00.826Z,14.70
2018-06-17T02:15:29.134Z,13.20
2018-06-17T02:17:57.350Z,14.37
2018-06-17T02:20:29.134Z,12.17
2018-06-17T02:22:57.451Z,13.47
2018-06-17T02:25:25.697Z,12.60
2018-06-17T02:27:54.085Z,14.00
2018-06-17T02:30:22.367Z,15.30
2018-06-17T02:32:50.714Z,13.93
2018-06-17T02:35:18.950Z,11.30
2018-06-17T02:37:47.321Z,13.57
2018-06-17T02:40:15.712Z,13.00
2018-06-17T02:42:44.076Z,11.47
2018-06-17T02:46:20.695Z,11.33
2018-06-17T02:48:54.230Z,10.47
2018-06-17T02:51:27.750Z,11.80
2018-06-17T02:54:01.332Z,8.30
2018-06-17T02:56:29.682Z,11.87
2018-06-17T02:58:58.022Z,10.20
2018-06-17T03:01:26.373Z,11.67
2018-06-17T03:03:55.131Z,10.00
2018-06-17T03:06:23.445Z,9.87
2018-06-17T03:08:51.721Z,10.53
2018-06-17T03:11:19.979Z,10.67
2018-06-17T03:13:48.237Z,10.90
2018-06-17T03:16:16.441Z,7.70
2018-06-17T03:18:44.784Z,7.90
2018-06-17T03:21:13.186Z,7.63
2018-06-17T03:23:41.534Z,7.37
2018-06-17T03:26:15.116Z,8.40
2018-06-17T03:28:48.879Z,6.50
2018-06-17T03:31:17.327Z,10.57
2018-06-17T03:33:51.482Z,8.37
2018-06-17T03:36:19.865Z,8.23
2018-06-17T03:38:48.297Z,6.90
2018-06-17T03:41:16.589Z,7.47
2018-06-17T03:43:44.975Z,6.50
2018-06-17T03:46:13.338Z,7.63
2018-06-17T03:48:41.710Z,6.53
2018-06-17T03:51:10.101Z,7.97
2018-06-17T03:53:38.281Z,8.67
2018-06-17T03:56:06.613Z,6.00
2018-06-17T03:58:34.831Z,5.43
2018-06-17T04:01:03.101Z,4.60
2018-06-17T04:03:31.332Z,5.60
2018-06-17T04:05:59.685Z,5.93
2018-06-17T04:08:27.917Z,6.77
2018-06-17T04:10:56.132Z,6.93
2018-06-17T04:13:24.504Z,5.10
2018-06-17T04:15:52.893Z,4.43
2018-06-17T04:18:21.092Z,5.40
2018-06-17T04:20:49.414Z,5.47
2018-06-17T04:23:17.784Z,4.80
2018-06-17T04:25:46.155Z,3.10
2018-06-17T04:28:14.377Z,4.57
2018-06-17T04:30:42.744Z,4.87
2018-06-17T04:33:11.153Z,4.73
2018-06-17T04:35:39.558Z,4.70
2018-06-17T04:38:07.803Z,5.73
2018-06-17T04:40:36.177Z,4.27
2018-06-17T04:43:04.551Z,4.20
2018-06-17T04:45:32.838Z,5.30
2018-06-17T04:48:01.150Z,3.60
2018-06-17T04:50:30.405Z,5.17
2018-06-17T04:52:58.786Z,4.07
2018-06-17T04:55:27.168Z,4.63
2018-06-17T04:57:56.287Z,3.87
2018-06-17T05:00:24.578Z,3.57
2018-06-17T05:02:52.932Z,5.23
2018-06-17T05:05:21.168Z,3.87
2018-06-17T05:07:49.526Z,4.73
2018-06-17T05:10:17.922Z,5.63
2018-06-17T05:12:46.668Z,3.67
2018-06-17T05:15:15.026Z,3.90
2018-06-17T05:17:43.274Z,4.70
2018-06-17T05:20:11.607Z,4.97
2018-06-17T05:22:39.856Z,3.27
2018-06-17T05:25:08.235Z,4.60
2018-06-17T05:27:37.405Z,4.50
2018-06-17T05:30:05.811Z,4.47
2018-06-17T05:32:34.230Z,5.17
2018-06-17T05:35:02.611Z,3.90
2018-06-17T05:37:30.927Z,4.20
2018-06-17T05:39:59.321Z,4.00
2018-06-17T05:42:27.640Z,3.93
2018-06-17T05:44:55.876Z,3.30
2018-06-17T05:47:24.115Z,2.60
2018-06-17T05:49:52.439Z,4.13
2018-06-17T05:52:20.799Z,4.20
2018-06-17T05:54:49.086Z,3.70
2018-06-17T05:57:17.460Z,4.30
2018-06-17T05:59:45.820Z,3.20
2018-06-17T06:02:14.154Z,3.50
2018-06-17T06:04:42.534Z,3.70
2018-06-17T06:07:10.902Z,3.00
2018-06-17T06:09:39.291Z,4.00
2018-06-17T06:12:07.597Z,3.43
2018-06-17T06:14:36.026Z,3.33
2018-06-17T06:17:04.434Z,2.97
2018-06-17T06:19:32.744Z,2.60
2018-06-17T06:22:00.995Z,2.73
2018-06-17T06:24:29.365Z,2.30
2018-06-17T06:26:57.767Z,3.17
2018-06-17T06:29:26.196Z,3.30
2018-06-17T06:31:54.496Z,3.00
2018-06-17T06:34:22.926Z,3.47
2018-06-17T06:36:51.290Z,3.00
2018-06-17T06:39:19.653Z,3.07
2018-06-17T06:41:47.885Z,2.27
2018-06-17T06:44:16.230Z,3.40
2018-06-17T06:46:44.511Z,2.23
2018-06-17T06:49:12.858Z,2.67
2018-06-17T06:51:41.104Z,3.13
2018-06-17T06:54:09.519Z,2.80
2018-06-17T06:56:37.952Z,3.07
2018-06-17T06:59:06.389Z,2.80
2018-06-17T07:01:40.260Z,2.97
2018-06-17T07:04:14.375Z,2.60
2018-06-17T07:06:48.326Z,1.80
2018-06-17T07:09:22.093Z,3.33
2018-06-17T07:11:50.502Z,2.80
2018-06-17T07:14:18.870Z,3.80
2018-06-17T07:16:52.774Z,4.50
2018-06-17T07:19:21.040Z,2.83
2018-06-17T07:21:49.455Z,2.90
2018-06-17T07:24:17.796Z,2.20
2018-06-17T07:26:52.840Z,3.10
2018-06-17T07:29:28.990Z,2.73
2018-06-17T07:31:57.307Z,2.87
2018-06-17T07:34:25.856Z,2.70
2018-06-17T07:36:54.191Z,2.80
2018-06-17T07:41:34.477Z,3.13
2018-06-17T07:44:02.990Z,4.17
2018-06-17T07:46:31.438Z,3.40
2018-06-17T07:49:33.823Z,3.63
2018-06-17T07:52:09.136Z,2.90
2018-06-17T07:54:38.639Z,2.93
2018-06-17T07:57:07.636Z,2.90
2018-06-17T07:59:36.432Z,3.47
2018-06-17T08:02:05.612Z,2.93
2018-06-17T08:04:33.943Z,3.50
2018-06-17T08:07:02.287Z,3.10
2018-06-17T08:09:30.636Z,3.40
2018-06-17T08:11:59.616Z,2.50
2018-06-17T08:14:29.053Z,3.27
2018-06-17T08:16:57.705Z,3.60
2018-06-17T08:19:27.314Z,3.03
2018-06-17T08:21:56.684Z,3.33
2018-06-17T08:24:25.239Z,3.83
2018-06-17T08:26:53.786Z,3.93
2018-06-17T08:29:22.202Z,3.23
2018-06-17T08:31:50.426Z,2.60
2018-06-17T08:34:18.698Z,2.73
2018-06-17T08:36:47.266Z,3.70
2018-06-17T08:39:17.104Z,3.37
2018-06-17T08:41:45.379Z,4.20
2018-06-17T08:44:14.596Z,4.07
2018-06-17T08:46:43.706Z,3.37
2018-06-17T08:49:12.597Z,2.67
2018-06-17T08:51:41.094Z,4.43
2018-06-17T08:54:09.489Z,2.90
2018-06-17T08:56:37.901Z,3.67
2018-06-17T08:59:06.341Z,3.17
2018-06-17T09:01:35.654Z,3.40
2018-06-17T09:04:04.061Z,3.60
2018-06-17T09:06:32.373Z,2.93
2018-06-17T09:09:00.720Z,4.07
2018-06-17T09:11:29.115Z,2.40
2018-06-17T09:13:57.465Z,3.83
2018-06-17T09:16:25.973Z,3.77
2018-06-17T09:18:54.214Z,2.90
2018-06-17T09:21:22.555Z,3.27
2018-06-17T09:23:50.951Z,4.27
2018-06-17T09:26:19.197Z,3.43
2018-06-17T09:28:47.426Z,3.90
2018-06-17T09:31:15.904Z,3.40
2018-06-17T09:33:44.345Z,4.60
2018-06-17T09:36:12.667Z,3.20
2018-06-17T09:38:41.045Z,3.63
2018-06-17T09:41:09.308Z,3.50
2018-06-17T09:43:37.756Z,3.60
2018-06-17T09:46:06.200Z,2.60
2018-06-17T09:48:34.629Z,3.30
2018-06-17T09:51:03.120Z,3.30
2018-06-17T09:53:31.570Z,3.80
2018-06-17T09:55:59.926Z,4.50
2018-06-17T09:58:28.231Z,3.60
2018-06-17T10:00:56.657Z,3.30
2018-06-17T10:03:25.085Z,3.10
2018-06-17T10:05:53.554Z,2.97
2018-06-17T10:08:22.034Z,3.37
2018-06-17T10:10:57.922Z,4.30
2018-06-17T10:13:27.617Z,3.97
2018-06-17T10:15:55.966Z,3.83
2018-06-17T10:18:26.417Z,5.50
2018-06-17T10:20:54.943Z,2.97
2018-06-17T10:23:23.230Z,4.10
2018-06-17T10:25:51.507Z,3.67
2018-06-17T10:28:20.686Z,4.30
2018-06-17T10:30:51.175Z,5.27
2018-06-17T10:33:19.646Z,3.87
2018-06-17T10:35:48.464Z,4.10
2018-06-17T10:38:16.766Z,4.10
2018-06-17T10:40:45.366Z,3.57
2018-06-17T10:43:21.788Z,2.30
2018-06-17T10:45:50.184Z,3.20
2018-06-17T10:48:18.611Z,3.80
2018-06-17T10:50:46.940Z,3.07
2018-06-17T10:53:15.251Z,3.93
2018-06-17T10:55:43.730Z,3.07
2018-06-17T10:58:12.064Z,3.53
2018-06-17T11:00:40.563Z,3.00
2018-06-17T11:03:08.876Z,4.23
2018-06-17T11:05:37.288Z,2.70
2018-06-17T11:08:05.680Z,4.13
2018-06-17T11:10:33.978Z,3.47
2018-06-17T11:13:02.385Z,3.00
2018-06-17T11:15:30.711Z,3.97
2018-06-17T11:18:00.032Z,3.47
2018-06-17T11:20:28.426Z,3.23
2018-06-17T11:22:56.813Z,3.33
2018-06-17T11:25:25.127Z,3.60
2018-06-17T11:27:53.387Z,3.77
2018-06-17T11:30:21.752Z,2.80
2018-06-17T11:32:53.241Z,2.40
2018-06-17T11:35:21.662Z,3.13
2018-06-17T11:37:50.026Z,3.13
2018-06-17T11:40:18.368Z,4.23
2018-06-17T11:42:46.839Z,2.90
2018-06-17T11:45:16.206Z,3.80
2018-06-17T11:47:44.562Z,2.80
2018-06-17T11:50:12.873Z,4.47
2018-06-17T11:52:41.228Z,2.10
2018-06-17T11:55:09.568Z,2.67
2018-06-17T11:57:37.999Z,3.07
2018-06-17T12:00:06.533Z,3.67
2018-06-17T12:02:34.953Z,3.13
2018-06-17T12:05:03.423Z,2.50
2018-06-17T12:07:31.870Z,2.67
2018-06-17T12:10:00.262Z,3.33
2018-06-17T12:12:28.624Z,2.87
2018-06-17T12:14:56.931Z,2.47
2018-06-17T12:17:25.365Z,3.27
2018-06-17T12:19:53.873Z,2.70
2018-06-17T12:22:22.198Z,2.13
2018-06-17T12:24:50.619Z,3.40
2018-06-17T12:27:18.983Z,2.60
2018-06-17T12:29:47.430Z,2.70
2018-06-17T12:32:15.843Z,3.00
2018-06-17T12:34:44.286Z,2.93
2018-06-17T12:37:12.637Z,3.23
2018-06-17T12:39:41.066Z,3.90
2018-06-17T12:42:09.322Z,3.30
2018-06-17T12:44:37.748Z,3.63
2018-06-17T12:47:06.038Z,3.50
2018-06-17T12:49:34.368Z,2.90
2018-06-17T12:52:02.679Z,3.87
2018-06-17T12:54:31.121Z,3.97
2018-06-17T12:56:59.395Z,3.63
2018-06-17T12:59:27.854Z,3.87
2018-06-17T13:01:56.267Z,3.67
2018-06-17T13:04:24.920Z,3.53
2018-06-17T13:06:55.073Z,3.17
2018-06-17T13:09:23.500Z,2.70
2018-06-17T13:11:51.936Z,2.97
2018-06-17T13:14:20.304Z,3.40
2018-06-17T13:16:48.606Z,3.87
2018-06-17T13:19:17.010Z,4.00
2018-06-17T13:21:45.336Z,3.87
2018-06-17T13:24:13.717Z,2.13
2018-06-17T13:26:42.171Z,3.30
2018-06-17T13:29:11.588Z,4.30
2018-06-17T13:31:39.953Z,3.10
2018-06-17T13:34:08.384Z,3.00
2018-06-17T13:36:37.005Z,2.77
2018-06-17T13:39:06.607Z,3.40
2018-06-17T13:41:35.052Z,2.47
2018-06-17T13:44:03.338Z,4.33
2018-06-17T13:46:31.737Z,3.33
2018-06-17T13:49:00.093Z,4.10
2018-06-17T13:51:28.431Z,3.00
2018-06-17T13:53:56.778Z,2.90
2018-06-17T13:56:25.228Z,2.83
2018-06-17T13:58:53.487Z,3.03
2018-06-17T14:01:21.790Z,2.73
2018-06-17T14:03:50.184Z,4.23
2018-06-17T14:06:18.522Z,3.60
2018-06-17T14:08:46.807Z,2.93
2018-06-17T14:11:15.218Z,3.47
2018-06-17T14:13:43.600Z,3.33
2018-06-17T14:16:13.055Z,3.73
2018-06-17T14:18:41.445Z,2.53
2018-06-17T14:21:09.750Z,4.10
2018-06-17T14:23:38.115Z,3.60
2018-06-17T14:26:06.530Z,3.40
2018-06-17T14:28:34.914Z,4.20
2018-06-17T14:31:03.434Z,3.50
2018-06-17T14:33:31.802Z,4.13
2018-06-17T14:36:00.083Z,4.50
2018-06-17T14:38:28.445Z,3.77
2018-06-17T14:41:02.253Z,3.67
2018-06-17T14:43:36.134Z,3.10
2018-06-17T14:46:09.909Z,4.70
2018-06-17T14:48:43.813Z,4.50
2018-06-17T14:51:17.626Z,3.60
2018-06-17T14:53:45.962Z,4.53
2018-06-17T14:56:14.275Z,3.27
2018-06-17T14:58:42.707Z,3.47
2018-06-17T15:01:11.007Z,4.80
2018-06-17T15:03:39.541Z,3.17
2018-06-17T15:06:07.888Z,4.00
2018-06-17T15:08:36.205Z,3.80
2018-06-17T15:11:04.525Z,4.03
2018-06-17T15:13:32.960Z,3.80
2018-06-17T15:16:01.365Z,4.10
2018-06-17T15:18:29.856Z,3.70
2018-06-17T15:20:58.268Z,3.17
2018-06-17T15:23:26.685Z,3.83
2018-06-17T15:25:55.039Z,3.60
2018-06-17T15:28:23.415Z,4.30
2018-06-17T15:30:51.642Z,3.63
2018-06-17T15:33:25.372Z,3.67
2018-06-17T15:35:59.002Z,3.40
2018-06-17T15:38:32.867Z,3.43
2018-06-17T15:41:06.714Z,3.63
2018-06-17T15:43:35.059Z,3.97
2018-06-17T15:46:03.332Z,4.27
2018-06-17T15:48:32.670Z,2.90
2018-06-17T15:51:01.015Z,3.20
2018-06-17T15:53:29.386Z,4.20
2018-06-17T15:55:57.818Z,3.63
2018-06-17T15:58:26.211Z,3.00
2018-06-17T16:00:54.681Z,2.63
2018-06-17T16:03:22.964Z,3.67
2018-06-17T16:05:51.348Z,3.70
2018-06-17T16:08:19.729Z,3.97
2018-06-17T16:10:48.118Z,3.40
2018-06-17T16:13:21.737Z,4.43
2018-06-17T16:15:55.243Z,3.10
2018-06-17T16:18:29.078Z,3.70
2018-06-17T16:20:59.878Z,3.70
2018-06-17T16:23:29.626Z,4.50
2018-06-17T16:25:57.975Z,5.07
2018-06-17T16:28:26.355Z,3.60
2018-06-17T16:30:54.747Z,4.40
2018-06-17T16:33:23.054Z,3.33
2018-06-17T16:35:51.403Z,3.97
2018-06-17T16:38:19.731Z,4.10
2018-06-17T16:40:48.167Z,3.30
2018-06-17T16:43:16.501Z,3.23
2018-06-17T16:45:45.025Z,3.37
2018-06-17T16:48:13.390Z,3.53
2018-06-17T16:50:52.332Z,3.83
2018-06-17T16:53:25.970Z,3.63
2018-06-17T16:55:59.751Z,2.90
2018-06-17T16:58:33.437Z,3.23
2018-06-17T17:01:01.719Z,3.30
2018-06-17T17:03:30.095Z,4.43
2018-06-17T17:05:58.335Z,3.60
2018-06-17T17:08:26.671Z,3.60
2018-06-17T17:10:55.107Z,3.53
2018-06-17T17:13:23.491Z,3.27
2018-06-17T17:15:51.963Z,5.03
2018-06-17T17:18:20.231Z,2.53
2018-06-17T17:20:48.848Z,3.37
2018-06-17T17:23:17.399Z,3.80
2018-06-17T17:25:45.625Z,3.70
2018-06-17T17:28:13.942Z,4.30
2018-06-17T17:30:46.618Z,4.77
2018-06-17T17:33:20.508Z,4.70
2018-06-17T17:35:54.106Z,3.53
2018-06-17T17:38:29.952Z,2.70
2018-06-17T17:41:03.330Z,3.40
2018-06-17T17:43:31.729Z,3.40
2018-06-17T17:46:05.390Z,4.20
2018-06-17T17:48:33.597Z,3.97
2018-06-17T17:51:02.343Z,3.00
2018-06-17T17:53:31.152Z,3.10
2018-06-17T17:56:02.933Z,3.30
2018-06-17T17:58:31.316Z,3.80
2018-06-17T18:00:59.637Z,3.60
2018-06-17T18:03:28.055Z,3.60
2018-06-17T18:05:57.391Z,3.30
2018-06-17T18:08:25.617Z,4.20
2018-06-17T18:10:53.979Z,4.47
2018-06-17T18:13:22.454Z,2.73
2018-06-17T18:15:50.729Z,3.33
2018-06-17T18:18:18.950Z,3.77
2018-06-17T18:20:47.372Z,3.83
2018-06-17T18:23:15.652Z,3.97
2018-06-17T18:25:49.271Z,4.13
2018-06-17T18:28:23.115Z,4.00
2018-06-17T18:31:00.121Z,3.13
2018-06-17T18:33:34.074Z,3.37
2018-06-17T18:36:08.905Z,3.40
2018-06-17T18:38:38.298Z,3.27
2018-06-17T18:41:06.712Z,3.53
2018-06-17T18:43:34.974Z,3.90
2018-06-17T18:46:06.919Z,3.60
2018-06-17T18:48:35.243Z,4.00
2018-06-17T18:51:03.662Z,5.90
2018-06-17T18:53:32.002Z,2.63
2018-06-17T18:56:00.348Z,3.70
2018-06-17T18:58:28.714Z,4.03
2018-06-17T19:00:57.074Z,4.20
2018-06-17T19:03:25.436Z,5.00
2018-06-17T19:05:53.698Z,4.30
2018-06-17T19:08:27.334Z,5.57
2018-06-17T19:11:01.114Z,5.70
2018-06-17T19:13:34.939Z,5.03
2018-06-17T19:16:09.503Z,4.53
2018-06-17T19:18:37.870Z,5.97
2018-06-17T19:21:07.206Z,7.37
2018-06-17T19:23:35.638Z,5.50
2018-06-17T19:26:04.061Z,7.57
2018-06-17T19:28:32.445Z,5.63
2018-06-17T19:31:00.694Z,4.27
2018-06-17T19:33:28.986Z,6.83
2018-06-17T19:35:57.459Z,6.60
2018-06-17T19:38:26.044Z,4.33
2018-06-17T19:40:54.510Z,5.57
2018-06-17T19:43:22.869Z,5.50
2018-06-17T19:45:51.118Z,5.43
2018-06-17T19:48:19.366Z,3.50
2018-06-17T19:50:53.037Z,4.57
2018-06-17T19:53:26.946Z,4.60
2018-06-17T19:56:00.798Z,4.57
2018-06-17T19:58:34.690Z,4.00
2018-06-17T20:01:04.055Z,4.40
2018-06-17T20:03:32.554Z,4.47
2018-06-17T20:06:01.023Z,5.37
2018-06-17T20:08:29.300Z,4.53
2018-06-17T20:10:57.629Z,5.60
2018-06-17T20:13:26.063Z,3.87
2018-06-17T20:15:54.517Z,4.73
2018-06-17T20:18:22.914Z,5.50
2018-06-17T20:20:51.300Z,5.00
2018-06-17T20:23:19.522Z,4.27
2018-06-17T20:25:47.938Z,3.83
2018-06-17T20:28:16.282Z,4.80
2018-06-17T20:30:44.736Z,4.20
2018-06-17T20:33:18.447Z,4.37
2018-06-17T20:35:52.094Z,4.50
2018-06-17T20:38:25.961Z,5.83
2018-06-17T20:40:59.711Z,5.10
2018-06-17T20:43:33.335Z,4.50
2018-06-17T20:46:03.798Z,5.13
2018-06-17T20:48:32.169Z,4.40
2018-06-17T20:51:00.541Z,5.60
2018-06-17T20:53:28.792Z,4.77
2018-06-17T20:55:57.167Z,4.40
2018-06-17T20:58:25.564Z,4.17
2018-06-17T21:00:53.897Z,2.70
2018-06-17T21:03:22.290Z,3.63
2018-06-17T21:05:50.670Z,5.43
2018-06-17T21:08:19.021Z,3.17
2018-06-17T21:10:48.403Z,3.10
2018-06-17T21:13:16.752Z,2.87
2018-06-17T21:15:45.119Z,4.30
2018-06-17T21:18:13.681Z,4.73
2018-06-17T21:20:47.480Z,3.57
2018-06-17T21:23:21.342Z,3.40
2018-06-17T21:25:55.142Z,3.47
2018-06-17T21:28:23.396Z,3.50
2018-06-17T21:30:51.782Z,4.20
2018-06-17T21:33:20.157Z,4.77
2018-06-17T21:35:48.547Z,3.83
2018-06-17T21:38:16.852Z,3.23
2018-06-17T21:40:45.088Z,3.00
2018-06-17T21:43:14.361Z,4.53
2018-06-17T21:45:42.574Z,4.80
2018-06-17T21:48:10.871Z,3.40
2018-06-17T21:50:39.205Z,5.10
2018-06-17T21:53:07.605Z,4.83
2018-06-17T21:55:35.944Z,4.30
2018-06-17T21:58:04.322Z,4.90
2018-06-17T22:00:32.625Z,5.43
2018-06-17T22:03:01.002Z,4.40
2018-06-17T22:05:29.305Z,5.40
2018-06-17T22:08:03.209Z,4.40
2018-06-17T22:10:37.047Z,4.73
2018-06-17T22:13:05.482Z,4.93
2018-06-17T22:15:39.005Z,5.17
2018-06-17T22:18:07.242Z,4.30
2018-06-17T22:20:35.573Z,5.13
2018-06-17T22:23:03.977Z,5.90
2018-06-17T22:25:32.328Z,4.03
2018-06-17T22:28:01.674Z,5.77
2018-06-17T22:30:29.922Z,6.43
2018-06-17T22:32:58.275Z,5.80
2018-06-17T22:35:26.610Z,3.93
2018-06-17T22:37:54.837Z,3.10
2018-06-17T22:40:23.156Z,4.53
2018-06-17T22:42:51.440Z,5.83
2018-06-17T22:45:20.734Z,4.60
2018-06-17T22:47:54.607Z,5.67
2018-06-17T22:50:22.986Z,6.47
2018-06-17T22:52:56.773Z,5.20
2018-06-17T22:55:25.020Z,5.00
2018-06-17T22:57:58.939Z,4.53
2018-06-17T23:00:32.614Z,4.03
2018-06-17T23:03:06.234Z,5.87
2018-06-17T23:05:39.786Z,5.67
2018-06-17T23:08:13.595Z,5.03
2018-06-17T23:10:42.749Z,3.47
2018-06-17T23:13:11.137Z,7.27
2018-06-17T23:15:39.475Z,5.03
2018-06-17T23:18:07.690Z,4.90
2018-06-17T23:20:36.001Z,3.77
2018-06-17T23:23:04.241Z,4.47
2018-06-17T23:25:32.565Z,5.90
2018-06-17T23:28:00.967Z,5.10
2018-06-17T23:30:29.350Z,6.00
2018-06-17T23:32:57.757Z,4.23
2018-06-17T23:35:25.969Z,4.40
2018-06-17T23:37:54.296Z,4.23
2018-06-17T23:40:22.550Z,3.73
2018-06-17T23:42:50.791Z,5.43
2018-06-17T23:45:19.163Z,4.60
2018-06-17T23:47:53.653Z,4.60
2018-06-17T23:50:27.343Z,4.00
2018-06-17T23:53:01.072Z,6.57
2018-06-17T23:55:34.820Z,4.70
2018-06-17T23:58:03.206Z,6.07
